Observation data for Haskell on 04/23/2019      Previous  Date  Next       Current Mesonet Observations  Soil Data  Daily Summary Page  Observations in Plain Language
KHA1 230500Z 12008KT 20/15 A2996 RMK A01 T02010153  RH  077%=      5-min Rain = 0
KHA1 230505Z 12009KT 20/15 A2996 RMK A01 T02010153  RH  077%=      5-min Rain = 0
KHA1 230510Z 12009KT 20/15 A2996 RMK A01 T02000152  RH  077%=      5-min Rain = 0
KHA1 230515Z 12008KT 20/15 A2996 RMK A01 T02000153  RH  078%=      5-min Rain = 0
KHA1 230520Z 13009KT 20/15 A2996 RMK A01 T01990152  RH  078%=      5-min Rain = 0
KHA1 230525Z 13008KT 20/15 A2996 RMK A01 T02000152  RH  077%=      5-min Rain = 0
KHA1 230530Z 13008KT 20/15 A2996 RMK A01 T02000152  RH  078%=      5-min Rain = 0
KHA1 230535Z 13009G14KT 20/15 A2996 RMK A01 T02000152  RH  077%=      5-min Rain = 0
KHA1 230540Z 13009KT 20/15 A2996 RMK A01 T02000152  RH  077%=      5-min Rain = 0
KHA1 230545Z 13008KT 20/15 A2996 RMK A01 T01990152  RH  078%=      5-min Rain = 0
KHA1 230550Z 13008G13KT 20/15 A2996 RMK A01 T01980151  RH  078%=      5-min Rain = 0
KHA1 230555Z 13008KT 20/15 A2996 RMK A01 T01980151  RH  077%=      5-min Rain = 0
KHA1 230600Z 13008KT 20/15 A2996 RMK A01 T01970151  RH  078%=      5-min Rain = 0
KHA1 230605Z 13008KT 20/15 A2996 RMK A01 T01960150  RH  079%=      5-min Rain = 0
KHA1 230610Z 14009KT 20/15 A2996 RMK A01 T01950150  RH  079%=      5-min Rain = 0
KHA1 230615Z 14008KT 19/15 A2996 RMK A01 T01940150  RH  079%=      5-min Rain = 0
KHA1 230620Z 14008KT 19/15 A2996 RMK A01 T01930150  RH  080%=      5-min Rain = 0
KHA1 230625Z 14008KT 19/15 A2996 RMK A01 T01930150  RH  080%=      5-min Rain = 0
KHA1 230630Z 14007KT 19/15 A2996 RMK A01 T01920150  RH  080%=      5-min Rain = 0
KHA1 230635Z 14006KT 19/15 A2996 RMK A01 T01910150  RH  081%=      5-min Rain = 0
KHA1 230640Z 14006KT 19/15 A2996 RMK A01 T01900150  RH  081%=      5-min Rain = 0
KHA1 230645Z 13007KT 19/15 A2996 RMK A01 T01900150  RH  081%=      5-min Rain = 0
KHA1 230650Z 13007KT 19/15 A2996 RMK A01 T01890150  RH  082%=      5-min Rain = 0
KHA1 230655Z 13007KT 19/15 A2996 RMK A01 T01880150  RH  082%=      5-min Rain = 0
KHA1 230700Z 13007KT 19/15 A2996 RMK A01 T01880150  RH  082%=      5-min Rain = 0
KHA1 230705Z 13007KT 19/15 A2996 RMK A01 T01870150  RH  083%=      5-min Rain = 0
KHA1 230710Z 13007KT 19/15 A2995 RMK A01 T01860150  RH  083%=      5-min Rain = 0
KHA1 230715Z 13007KT 19/15 A2995 RMK A01 T01860150  RH  083%=      5-min Rain = 0
KHA1 230720Z 12007KT 19/15 A2995 RMK A01 T01850150  RH  084%=      5-min Rain = 0
KHA1 230725Z 12007KT 18/15 A2995 RMK A01 T01840150  RH  085%=      5-min Rain = 0
KHA1 230730Z 12006KT 18/15 A2995 RMK A01 T01830150  RH  085%=      5-min Rain = 0
KHA1 230735Z 12005KT 18/15 A2995 RMK A01 T01820150  RH  086%=      5-min Rain = 0
KHA1 230740Z 12006KT 18/15 A2994 RMK A01 T01810150  RH  086%=      5-min Rain = 0
KHA1 230745Z 12006KT 18/15 A2994 RMK A01 T01810149  RH  086%=      5-min Rain = 0
KHA1 230750Z 13006KT 18/15 A2994 RMK A01 T01800149  RH  086%=      5-min Rain = 0
KHA1 230755Z 13006KT 18/15 A2994 RMK A01 T01800148  RH  085%=      5-min Rain = 0
KHA1 230800Z 13006KT 18/15 A2994 RMK A01 T01810148  RH  085%=      5-min Rain = 0
KHA1 230805Z 14007KT 18/15 A2994 RMK A01 T01800147  RH  085%=      5-min Rain = 0
KHA1 230810Z 14007KT 18/15 A2994 RMK A01 T01800147  RH  085%=      5-min Rain = 0
KHA1 230815Z 14006KT 18/15 A2994 RMK A01 T01800147  RH  084%=      5-min Rain = 0
KHA1 230820Z 14006KT 18/15 A2994 RMK A01 T01800146  RH  084%=      5-min Rain = 0
KHA1 230825Z 15004KT 18/15 A2994 RMK A01 T01800146  RH  084%=      5-min Rain = 0
KHA1 230830Z 15004KT 18/15 A2994 RMK A01 T01790146  RH  085%=      5-min Rain = 0
KHA1 230835Z 15005KT 18/15 A2994 RMK A01 T01780146  RH  085%=      5-min Rain = 0
KHA1 230840Z 15004KT 18/15 A2994 RMK A01 T01780145  RH  085%=      5-min Rain = 0
KHA1 230845Z 14004KT 18/15 A2994 RMK A01 T01780145  RH  085%=      5-min Rain = 0
KHA1 230850Z 15004KT 18/15 A2994 RMK A01 T01770145  RH  085%=      5-min Rain = 0
KHA1 230855Z 15004KT 18/15 A2994 RMK A01 T01770145  RH  085%=      5-min Rain = 0
KHA1 230900Z 15004KT 18/15 A2994 RMK A01 T01760145  RH  085%=      5-min Rain = 0
KHA1 230905Z 14004KT 18/14 A2994 RMK A01 T01760144  RH  085%=      5-min Rain = 0
KHA1 230910Z 14004KT 18/14 A2995 RMK A01 T01760144  RH  085%=      5-min Rain = 0
KHA1 230915Z 14005KT 18/14 A2994 RMK A01 T01760144  RH  085%=      5-min Rain = 0
KHA1 230920Z 14005KT 18/14 A2994 RMK A01 T01760144  RH  085%=      5-min Rain = 0
KHA1 230925Z 15005KT 18/14 A2995 RMK A01 T01750144  RH  086%=      5-min Rain = 0
KHA1 230930Z 14005KT 18/14 A2995 RMK A01 T01750144  RH  086%=      5-min Rain = 0
KHA1 230935Z 15005KT 18/14 A2995 RMK A01 T01760144  RH  085%=      5-min Rain = 0
KHA1 230940Z 15005KT 18/14 A2995 RMK A01 T01760144  RH  085%=      5-min Rain = 0
KHA1 230945Z 16004KT 18/14 A2995 RMK A01 T01770144  RH  085%=      5-min Rain = 0
KHA1 230950Z 17003KT 18/14 A2995 RMK A01 T01760144  RH  085%=      5-min Rain = 0
KHA1 230955Z 20002KT 18/15 A2995 RMK A01 T01750145  RH  086%=      5-min Rain = 0
KHA1 231000Z 24002KT 17/15 A2996 RMK A01 T01710145  RH  088%=      5-min Rain = 0
KHA1 231005Z 30003KT 17/14 A2996 RMK A01 T01700144  RH  089%=      5-min Rain = 0
KHA1 231010Z 32003KT 17/15 A2996 RMK A01 T01680145  RH  090%=      5-min Rain = 0
KHA1 231015Z 00001KT 17/15 A2995 RMK A01 T01680145  RH  090%=      5-min Rain = 0
KHA1 231020Z 03002KT 17/15 A2995 RMK A01 T01680146  RH  090%=      5-min Rain = 0
KHA1 231025Z 04002KT 17/15 A2995 RMK A01 T01700147  RH  090%=      5-min Rain = 0
KHA1 231030Z 07002KT 17/15 A2995 RMK A01 T01710146  RH  089%=      5-min Rain = 0
KHA1 231035Z 08001KT 17/15 A2996 RMK A01 T01720146  RH  089%=      5-min Rain = 0
KHA1 231040Z 10001KT 17/15 A2996 RMK A01 T01730147  RH  089%=      5-min Rain = 0
KHA1 231045Z 12002KT 17/15 A2996 RMK A01 T01730148  RH  089%=      5-min Rain = 0
KHA1 231050Z 12002KT 18/15 A2996 RMK A01 T01750147  RH  088%=      5-min Rain = 0
KHA1 231055Z 12003KT 18/15 A2996 RMK A01 T01750147  RH  087%=      5-min Rain = 0
KHA1 231100Z 12003KT 18/15 A2996 RMK A01 T01750147  RH  087%=      5-min Rain = 0
KHA1 231105Z 12003KT 18/15 A2996 RMK A01 T01760147  RH  087%=      5-min Rain = 0
KHA1 231110Z 12004KT 18/15 A2996 RMK A01 T01750147  RH  087%=      5-min Rain = 0
KHA1 231115Z 13003KT 18/15 A2997 RMK A01 T01750146  RH  087%=      5-min Rain = 0
KHA1 231120Z 13004KT 17/15 A2997 RMK A01 T01740145  RH  087%=      5-min Rain = 0
KHA1 231125Z 13004KT 18/15 A2997 RMK A01 T01750145  RH  087%=      5-min Rain = 0
KHA1 231130Z 13004KT 18/15 A2997 RMK A01 T01750145  RH  087%=      5-min Rain = 0
KHA1 231135Z 13004KT 18/15 A2997 RMK A01 T01750146  RH  087%=      5-min Rain = 0
KHA1 231140Z 13004KT 18/15 A2997 RMK A01 T01750146  RH  087%=      5-min Rain = 0
KHA1 231145Z 13004KT 17/15 A2997 RMK A01 T01740145  RH  087%=      5-min Rain = 0
KHA1 231150Z 13004KT 17/15 A2996 RMK A01 T01730145  RH  087%=      5-min Rain = 0
KHA1 231155Z 13004KT 17/15 A2996 RMK A01 T01720145  RH  087%=      5-min Rain = 0
KHA1 231200Z 12004KT 17/15 A2996 RMK A01 T01720145  RH  088%=      5-min Rain = 0
KHA1 231205Z 12005KT 17/15 A2996 RMK A01 T01720146  RH  088%=      5-min Rain = 0
KHA1 231210Z 12005KT 17/15 A2996 RMK A01 T01720146  RH  088%=      5-min Rain = 0
KHA1 231215Z 12003KT 17/15 A2996 RMK A01 T01720146  RH  089%=      5-min Rain = 0
KHA1 231220Z 12002KT 17/15 A2997 RMK A01 T01720146  RH  089%=      5-min Rain = 0
KHA1 231225Z 12003KT 17/15 A2997 RMK A01 T01720146  RH  089%=      5-min Rain = 0
KHA1 231230Z 11003KT 17/15 A2997 RMK A01 T01720146  RH  089%=      5-min Rain = 0
KHA1 231235Z 11002KT 17/15 A2998 RMK A01 T01720146  RH  088%=      5-min Rain = 0
KHA1 231240Z 09001KT 17/15 A2998 RMK A01 T01730146  RH  088%=      5-min Rain = 0
KHA1 231245Z 06001KT 17/15 A2998 RMK A01 T01730147  RH  088%=      5-min Rain = 0
KHA1 231250Z 05002KT 17/15 A2999 RMK A01 T01730147  RH  089%=      5-min Rain = 0
KHA1 231255Z 05002KT 17/15 A2999 RMK A01 T01730147  RH  089%=      5-min Rain = 0
KHA1 231300Z 06002KT 17/15 A2999 RMK A01 T01730148  RH  089%=      5-min Rain = 0
KHA1 231305Z 08003KT 17/15 A2999 RMK A01 T01740149  RH  089%=      5-min Rain = 0
KHA1 231310Z 08002KT 18/15 A2999 RMK A01 T01750149  RH  089%=      5-min Rain = 0
KHA1 231315Z 08002KT 18/15 A2999 RMK A01 T01760150  RH  089%=      5-min Rain = 0
KHA1 231320Z 07002KT 18/15 A2999 RMK A01 T01770150  RH  088%=      5-min Rain = 0
KHA1 231325Z 07002KT 18/15 A2999 RMK A01 T01760150  RH  089%=      5-min Rain = 0
KHA1 231330Z 06003KT 18/15 A30 RMK A01 T01760150  RH  089%=      5-min Rain = 0
KHA1 231335Z 05003KT 18/15 A30 RMK A01 T01760150  RH  088%=      5-min Rain = 0
KHA1 231340Z 05003KT 18/15 A30 RMK A01 T01770150  RH  088%=      5-min Rain = 0
KHA1 231345Z 05003KT 18/15 A30 RMK A01 T01770149  RH  088%=      5-min Rain = 0
KHA1 231350Z 06003KT 18/15 A30 RMK A01 T01780150  RH  087%=      5-min Rain = 0
KHA1 231355Z 07003KT 18/15 A30 RMK A01 T01800152  RH  087%=      5-min Rain = 0
KHA1 231400Z 05003KT 18/15 A3001 RMK A01 T01820152  RH  087%=      5-min Rain = 0
KHA1 231405Z 04003KT 18/15 A3001 RMK A01 T01810151  RH  087%=      5-min Rain = 0
KHA1 231410Z 04003KT 18/15 A3001 RMK A01 T01810152  RH  087%=      5-min Rain = 0
KHA1 231415Z 04004KT 18/15 A3001 RMK A01 T01810151  RH  086%=      5-min Rain = 0
KHA1 231420Z 03004KT 18/15 A3001 RMK A01 T01810152  RH  087%=      5-min Rain = 0
KHA1 231425Z 36006G16KT 18/15 A3001 RMK A01 T01810151  RH  087%=      5-min Rain = 0
KHA1 231430Z 36013KT 17/15 A3001 RMK A01 T01730145  RH  088%=      5-min Rain = 0
KHA1 231435Z 00013KT 17/14 A3001 RMK A01 T01680143  RH  089%=      5-min Rain = 0
KHA1 231440Z 00014KT 17/14 A3001 RMK A01 T01670142  RH  089%=      5-min Rain = 0
KHA1 231445Z 00014KT 16/14 A3001 RMK A01 T01640140  RH  089%=      5-min Rain = 0
KHA1 231450Z 00014KT 16/14 A3002 RMK A01 T01630139  RH  089%=      5-min Rain = 0
KHA1 231455Z 01015KT 16/14 A3002 RMK A01 T01620138  RH  089%=      5-min Rain = 0
KHA1 231500Z 02015KT 16/14 A3002 RMK A01 T01630138  RH  089%=      5-min Rain = 0
KHA1 231505Z 02015KT 16/14 A3002 RMK A01 T01630137  RH  088%=      5-min Rain = 0
KHA1 231510Z 01013KT 16/14 A3002 RMK A01 T01630137  RH  088%=      5-min Rain = 0
KHA1 231515Z 02013KT 16/14 A3003 RMK A01 T01630137  RH  088%=      5-min Rain = 0
KHA1 231520Z 02011KT 16/14 A3003 RMK A01 T01640138  RH  088%=      5-min Rain = 0
KHA1 231525Z 03011KT 16/14 A3003 RMK A01 T01640139  RH  088%=      5-min Rain = 0
KHA1 231530Z 03011KT 17/14 A3004 RMK A01 T01660139  RH  088%=      5-min Rain = 0
KHA1 231535Z 03011KT 17/14 A3003 RMK A01 T01670140  RH  088%=      5-min Rain = 0
KHA1 231540Z 03010KT 17/14 A3003 RMK A01 T01680141  RH  087%=      5-min Rain = 0
KHA1 231545Z 03011KT 17/14 A3003 RMK A01 T01670140  RH  088%=      5-min Rain = 0
KHA1 231550Z 03011KT 17/14 A3003 RMK A01 T01660140  RH  088%=      5-min Rain = 0
KHA1 231555Z 03011KT 17/14 A3003 RMK A01 T01650139  RH  089%=      5-min Rain = 0
KHA1 231600Z 03011KT 16/14 A3004 RMK A01 T01640140  RH  089%=      5-min Rain = 0
KHA1 231605Z 03011KT 16/14 A3003 RMK A01 T01640140  RH  089%=      5-min Rain = 0
KHA1 231610Z 04009KT 17/14 A3003 RMK A01 T01650141  RH  089%=      5-min Rain = 0
KHA1 231615Z 04010KT 16/14 A3003 RMK A01 T01630141  RH  090%=      5-min Rain = 0
KHA1 231620Z 04010KT 16/14 A3003 RMK A01 T01620142  RH  091%=      5-min Rain = 0
KHA1 231625Z 03008KT 16/14 A3004 RMK A01 T01610143  RH  093%=      5-min Rain = 0
KHA1 231630Z 35008G13KT 16/14 A3005 RMK A01 T01600143  RH  093%=      5-min Rain = 0.02
KHA1 231635Z 33013KT 15/14 A3006 RMK A01 T01540138  RH  094%=      5-min Rain = 0.4
KHA1 231640Z 02010KT 14/13 A3005 RMK A01 T01440132  RH  096%=      5-min Rain = 0.17
KHA1 231645Z 09007KT 15/14 A3004 RMK A01 T01460136  RH  097%=      5-min Rain = 0.07
KHA1 231650Z 08008KT 15/14 A3002 RMK A01 T01510141  RH  098%=      5-min Rain = 0.02
KHA1 231655Z 08008KT 15/14 A3002 RMK A01 T01520142  RH  098%=      5-min Rain = 0.01
KHA1 231700Z 08007KT 16/15 A3003 RMK A01 T01560145  RH  098%=      5-min Rain = 0.01
KHA1 231705Z 06007KT 16/14 A3003 RMK A01 T01560144  RH  097%=      5-min Rain = 0
KHA1 231710Z 04010KT 16/14 A3002 RMK A01 T01580144  RH  095%=      5-min Rain = 0
KHA1 231715Z 03010KT 16/14 A3001 RMK A01 T01590143  RH  094%=      5-min Rain = 0
KHA1 231720Z 03010KT 16/14 A3002 RMK A01 T01610142  RH  092%=      5-min Rain = 0
KHA1 231725Z 04010KT 16/14 A3002 RMK A01 T01630144  RH  092%=      5-min Rain = 0
KHA1 231730Z 04011KT 16/15 A3001 RMK A01 T01640147  RH  094%=      5-min Rain = 0
KHA1 231735Z 05010KT 16/15 A3001 RMK A01 T01620145  RH  094%=      5-min Rain = 0
KHA1 231740Z 04010KT 16/15 A30 RMK A01 T01620148  RH  095%=      5-min Rain = 0
KHA1 231745Z 04011KT 16/15 A30 RMK A01 T01620147  RH  095%=      5-min Rain = 0
KHA1 231750Z 04012KT 16/15 A30 RMK A01 T01620147  RH  095%=      5-min Rain = 0
KHA1 231755Z 05011KT 16/15 A2999 RMK A01 T01610147  RH  096%=      5-min Rain = 0
KHA1 231800Z 05011KT 16/15 A2999 RMK A01 T01640150  RH  095%=      5-min Rain = 0
KHA1 231805Z 06008KT 17/15 A30 RMK A01 T01670152  RH  095%=      5-min Rain = 0
KHA1 231810Z 05010G15KT 17/15 A2999 RMK A01 T01720154  RH  094%=      5-min Rain = 0
KHA1 231815Z 06011G16KT 17/15 A2999 RMK A01 T01720150  RH  091%=      5-min Rain = 0
KHA1 231820Z 06011KT 18/15 A2999 RMK A01 T01750151  RH  089%=      5-min Rain = 0
KHA1 231825Z 06012KT 18/15 A2998 RMK A01 T01750150  RH  089%=      5-min Rain = 0
KHA1 231830Z 06010KT 18/15 A2998 RMK A01 T01750151  RH  089%=      5-min Rain = 0
KHA1 231835Z 06010KT 18/15 A2999 RMK A01 T01790152  RH  088%=      5-min Rain = 0
KHA1 231840Z 06007KT 18/15 A2999 RMK A01 T01800153  RH  088%=      5-min Rain = 0
KHA1 231845Z 06006KT 18/15 A2999 RMK A01 T01810152  RH  087%=      5-min Rain = 0
KHA1 231850Z 09006KT 18/15 A30 RMK A01 T01810154  RH  088%=      5-min Rain = 0
KHA1 231855Z 07006KT 18/16 A30 RMK A01 T01830156  RH  088%=      5-min Rain = 0
KHA1 231900Z 06004KT 19/16 A2999 RMK A01 T01850159  RH  089%=      5-min Rain = 0
KHA1 231905Z 07003KT 19/16 A2999 RMK A01 T01870158  RH  087%=      5-min Rain = 0
KHA1 231910Z 04004KT 19/16 A2999 RMK A01 T01880160  RH  088%=      5-min Rain = 0
KHA1 231915Z 03004KT 19/16 A2999 RMK A01 T01890161  RH  088%=      5-min Rain = 0
KHA1 231920Z 03004KT 19/16 A2999 RMK A01 T01900159  RH  086%=      5-min Rain = 0
KHA1 231925Z 02004KT 19/16 A2999 RMK A01 T01940164  RH  087%=      5-min Rain = 0
KHA1 231930Z 02005KT 20/17 A2999 RMK A01 T01970165  RH  086%=      5-min Rain = 0
KHA1 231935Z 02005KT 20/16 A2999 RMK A01 T01970161  RH  084%=      5-min Rain = 0
KHA1 231940Z 03006KT 19/16 A2999 RMK A01 T01940161  RH  085%=      5-min Rain = 0
KHA1 231945Z 02007KT 20/16 A2999 RMK A01 T01960163  RH  085%=      5-min Rain = 0
KHA1 231950Z 00007KT 20/16 A2999 RMK A01 T01960163  RH  085%=      5-min Rain = 0
KHA1 231955Z 01009KT 20/17 A2999 RMK A01 T02020167  RH  085%=      5-min Rain = 0
KHA1 232000Z 02009KT 20/17 A2999 RMK A01 T02020165  RH  083%=      5-min Rain = 0
KHA1 232005Z 01011KT 20/17 A2999 RMK A01 T02000165  RH  084%=      5-min Rain = 0
KHA1 232010Z 02010KT 20/17 A2999 RMK A01 T02010165  RH  084%=      5-min Rain = 0
KHA1 232015Z 02011KT 20/16 A2999 RMK A01 T02010164  RH  083%=      5-min Rain = 0
KHA1 232020Z 02012KT 20/17 A2999 RMK A01 T02020165  RH  083%=      5-min Rain = 0
KHA1 232025Z 01012KT 20/17 A2999 RMK A01 T02010165  RH  084%=      5-min Rain = 0
KHA1 232030Z 02012KT 20/16 A2999 RMK A01 T02020164  RH  083%=      5-min Rain = 0
KHA1 232035Z 01012KT 20/16 A2999 RMK A01 T01990159  RH  082%=      5-min Rain = 0
KHA1 232040Z 02011KT 20/16 A2999 RMK A01 T02000160  RH  082%=      5-min Rain = 0
KHA1 232045Z 02012KT 21/16 A2998 RMK A01 T02050160  RH  079%=      5-min Rain = 0
KHA1 232050Z 02012KT 21/16 A2998 RMK A01 T02060162  RH  079%=      5-min Rain = 0
KHA1 232055Z 01012KT 20/16 A2998 RMK A01 T02030160  RH  080%=      5-min Rain = 0
KHA1 232100Z 01016G21KT 20/16 A2997 RMK A01 T01990158  RH  081%=      5-min Rain = 0
KHA1 232105Z 02016KT 20/16 A2997 RMK A01 T02010164  RH  083%=      5-min Rain = 0
KHA1 232110Z 02018KT 20/16 A2996 RMK A01 T01970159  RH  083%=      5-min Rain = 0
KHA1 232115Z 02016KT 20/16 A2996 RMK A01 T01980160  RH  083%=      5-min Rain = 0
KHA1 232120Z 01016KT 20/16 A2996 RMK A01 T01980159  RH  082%=      5-min Rain = 0
KHA1 232125Z 02016KT 20/16 A2995 RMK A01 T02000161  RH  082%=      5-min Rain = 0
KHA1 232130Z 02016KT 20/16 A2996 RMK A01 T01980157  RH  081%=      5-min Rain = 0
KHA1 232135Z 02016KT 19/15 A2995 RMK A01 T01940154  RH  081%=      5-min Rain = 0
KHA1 232140Z 02016KT 20/15 A2995 RMK A01 T01960152  RH  080%=      5-min Rain = 0
KHA1 232145Z 02017KT 20/16 A2995 RMK A01 T01980155  RH  080%=      5-min Rain = 0
KHA1 232150Z 01016KT 20/16 A2995 RMK A01 T01960158  RH  082%=      5-min Rain = 0
KHA1 232155Z 02017KT 19/16 A2995 RMK A01 T01940156  RH  082%=      5-min Rain = 0
KHA1 232200Z 02016KT 19/15 A2995 RMK A01 T01940152  RH  080%=      5-min Rain = 0
KHA1 232205Z 02015KT 20/16 A2995 RMK A01 T01960156  RH  081%=      5-min Rain = 0
KHA1 232210Z 03014KT 20/16 A2995 RMK A01 T01970157  RH  081%=      5-min Rain = 0
KHA1 232215Z 02016KT 20/16 A2995 RMK A01 T01970155  RH  080%=      5-min Rain = 0
KHA1 232220Z 02016KT 20/16 A2994 RMK A01 T01960156  RH  081%=      5-min Rain = 0
KHA1 232225Z 02016KT 20/15 A2994 RMK A01 T01950153  RH  080%=      5-min Rain = 0
KHA1 232230Z 02015KT 19/15 A2995 RMK A01 T01930152  RH  081%=      5-min Rain = 0
KHA1 232235Z 02014KT 19/15 A2995 RMK A01 T01910154  RH  083%=      5-min Rain = 0
KHA1 232240Z 02015KT 19/15 A2994 RMK A01 T01900153  RH  082%=      5-min Rain = 0
KHA1 232245Z 02015KT 19/15 A2994 RMK A01 T01890152  RH  083%=      5-min Rain = 0
KHA1 232250Z 02015KT 19/15 A2994 RMK A01 T01870149  RH  082%=      5-min Rain = 0
KHA1 232255Z 02016KT 19/15 A2995 RMK A01 T01860148  RH  082%=      5-min Rain = 0
KHA1 232300Z 02015KT 19/15 A2994 RMK A01 T01850147  RH  082%=      5-min Rain = 0
KHA1 232305Z 02014G19KT 19/15 A2995 RMK A01 T01850148  RH  083%=      5-min Rain = 0
KHA1 232310Z 01014KT 19/15 A2995 RMK A01 T01850148  RH  083%=      5-min Rain = 0
KHA1 232315Z 02015KT 18/15 A2996 RMK A01 T01840145  RH  081%=      5-min Rain = 0
KHA1 232320Z 03015KT 18/14 A2996 RMK A01 T01830143  RH  081%=      5-min Rain = 0
KHA1 232325Z 03014KT 18/14 A2996 RMK A01 T01830144  RH  082%=      5-min Rain = 0
KHA1 232330Z 03015KT 18/14 A2996 RMK A01 T01830144  RH  082%=      5-min Rain = 0
KHA1 232335Z 02015KT 18/14 A2996 RMK A01 T01820143  RH  081%=      5-min Rain = 0
KHA1 232340Z 02015KT 18/14 A2995 RMK A01 T01810144  RH  082%=      5-min Rain = 0
KHA1 232345Z 02015KT 18/14 A2994 RMK A01 T01810143  RH  082%=      5-min Rain = 0
KHA1 232350Z 02014KT 18/14 A2995 RMK A01 T01810144  RH  082%=      5-min Rain = 0
KHA1 232355Z 01015KT 18/14 A2994 RMK A01 T01800143  RH  083%=      5-min Rain = 0
KHA1 240000Z 01015KT 18/14 A2994 RMK A01 T01790143  RH  083%=      5-min Rain = 0
KHA1 240005Z 01014KT 18/14 A2995 RMK A01 T01770143  RH  084%=      5-min Rain = 0
KHA1 240010Z 01015KT 18/14 A2995 RMK A01 T01760141  RH  083%=      5-min Rain = 0
KHA1 240015Z 01015KT 18/14 A2994 RMK A01 T01750140  RH  084%=      5-min Rain = 0
KHA1 240020Z 01014KT 17/14 A2994 RMK A01 T01740140  RH  084%=      5-min Rain = 0
KHA1 240025Z 01014KT 17/14 A2994 RMK A01 T01730139  RH  084%=      5-min Rain = 0
KHA1 240030Z 01013G18KT 17/14 A2994 RMK A01 T01720139  RH  084%=      5-min Rain = 0
KHA1 240035Z 01013G18KT 17/14 A2994 RMK A01 T01720140  RH  085%=      5-min Rain = 0
KHA1 240040Z 01013KT 17/14 A2994 RMK A01 T01710140  RH  085%=      5-min Rain = 0
KHA1 240045Z 00013KT 17/14 A2995 RMK A01 T01710139  RH  085%=      5-min Rain = 0
KHA1 240050Z 01013KT 17/14 A2995 RMK A01 T01700139  RH  086%=      5-min Rain = 0
KHA1 240055Z 00015KT 17/14 A2995 RMK A01 T01690139  RH  086%=      5-min Rain = 0
KHA1 240100Z 01014G19KT 17/14 A2994 RMK A01 T01680139  RH  087%=      5-min Rain = 0
KHA1 240105Z 02016KT 17/14 A2994 RMK A01 T01680138  RH  086%=      5-min Rain = 0
KHA1 240110Z 02015KT 17/14 A2995 RMK A01 T01670137  RH  086%=      5-min Rain = 0
KHA1 240115Z 02015KT 17/14 A2994 RMK A01 T01670137  RH  086%=      5-min Rain = 0
KHA1 240120Z 01015KT 17/14 A2994 RMK A01 T01660136  RH  086%=      5-min Rain = 0
KHA1 240125Z 02014KT 17/14 A2996 RMK A01 T01660135  RH  085%=      5-min Rain = 0
KHA1 240130Z 02013KT 17/14 A2996 RMK A01 T01660136  RH  086%=      5-min Rain = 0
KHA1 240135Z 02012KT 17/14 A2997 RMK A01 T01660136  RH  086%=      5-min Rain = 0
KHA1 240140Z 02012KT 17/14 A2997 RMK A01 T01660136  RH  086%=      5-min Rain = 0
KHA1 240145Z 02012KT 17/14 A2996 RMK A01 T01650137  RH  087%=      5-min Rain = 0
KHA1 240150Z 01013KT 16/14 A2995 RMK A01 T01640137  RH  088%=      5-min Rain = 0
KHA1 240155Z 00015KT 16/14 A2996 RMK A01 T01630135  RH  087%=      5-min Rain = 0
KHA1 240200Z 00015G20KT 16/13 A2997 RMK A01 T01610133  RH  087%=      5-min Rain = 0
KHA1 240205Z 01014KT 16/13 A2996 RMK A01 T01600132  RH  087%=      5-min Rain = 0
KHA1 240210Z 01015KT 16/13 A2995 RMK A01 T01590132  RH  087%=      5-min Rain = 0
KHA1 240215Z 00015KT 16/13 A2995 RMK A01 T01580131  RH  088%=      5-min Rain = 0
KHA1 240220Z 36014KT 16/13 A2997 RMK A01 T01580132  RH  088%=      5-min Rain = 0
KHA1 240225Z 36014KT 16/13 A2997 RMK A01 T01570132  RH  088%=      5-min Rain = 0
KHA1 240230Z 01011G16KT 16/13 A2997 RMK A01 T01570132  RH  089%=      5-min Rain = 0
KHA1 240235Z 02012KT 16/13 A2996 RMK A01 T01560131  RH  089%=      5-min Rain = 0
KHA1 240240Z 02015KT 16/13 A2995 RMK A01 T01560132  RH  089%=      5-min Rain = 0
KHA1 240245Z 01017KT 16/13 A2995 RMK A01 T01560131  RH  089%=      5-min Rain = 0
KHA1 240250Z 01018KT 16/13 A2995 RMK A01 T01550130  RH  089%=      5-min Rain = 0
KHA1 240255Z 01017KT 15/13 A2996 RMK A01 T01540128  RH  088%=      5-min Rain = 0
KHA1 240300Z 01016KT 15/13 A2996 RMK A01 T01540128  RH  088%=      5-min Rain = 0
KHA1 240305Z 02016KT 15/13 A2995 RMK A01 T01530128  RH  089%=      5-min Rain = 0
KHA1 240310Z 02016G21KT 15/13 A2994 RMK A01 T01530128  RH  089%=      5-min Rain = 0
KHA1 240315Z 36014KT 15/13 A2996 RMK A01 T01530128  RH  089%=      5-min Rain = 0
KHA1 240320Z 35012KT 15/13 A2997 RMK A01 T01530129  RH  089%=      5-min Rain = 0
KHA1 240325Z 00015KT 15/13 A2996 RMK A01 T01530128  RH  089%=      5-min Rain = 0
KHA1 240330Z 01015KT 15/13 A2995 RMK A01 T01520127  RH  089%=      5-min Rain = 0
KHA1 240335Z 01015KT 15/13 A2995 RMK A01 T01520127  RH  088%=      5-min Rain = 0
KHA1 240340Z 00015KT 15/13 A2994 RMK A01 T01510126  RH  089%=      5-min Rain = 0
KHA1 240345Z 01016KT 15/13 A2994 RMK A01 T01500127  RH  089%=      5-min Rain = 0
KHA1 240350Z 01014G19KT 15/13 A2995 RMK A01 T01500127  RH  089%=      5-min Rain = 0
KHA1 240355Z 00011KT 15/13 A2997 RMK A01 T01500127  RH  090%=      5-min Rain = 0
KHA1 240400Z 00009KT 15/13 A2998 RMK A01 T01500128  RH  090%=      5-min Rain = 0
KHA1 240405Z 00011KT 15/13 A2998 RMK A01 T01500128  RH  090%=      5-min Rain = 0
KHA1 240410Z 00011KT 15/13 A2998 RMK A01 T01500128  RH  090%=      5-min Rain = 0
KHA1 240415Z 02008KT 15/13 A2998 RMK A01 T01500130  RH  091%=      5-min Rain = 0
KHA1 240420Z 01009KT 15/13 A2999 RMK A01 T01500129  RH  091%=      5-min Rain = 0
KHA1 240425Z 01008KT 15/13 A30 RMK A01 T01500129  RH  091%=      5-min Rain = 0
KHA1 240430Z 02009KT 15/13 A3001 RMK A01 T01500128  RH  090%=      5-min Rain = 0
KHA1 240435Z 02007KT 15/13 A3002 RMK A01 T01500127  RH  089%=      5-min Rain = 0
KHA1 240440Z 35007KT 15/13 A3003 RMK A01 T01500127  RH  090%=      5-min Rain = 0
KHA1 240445Z 33005KT 15/13 A3004 RMK A01 T01500127  RH  090%=      5-min Rain = 0
KHA1 240450Z 31003KT 15/13 A3004 RMK A01 T01500125  RH  088%=      5-min Rain = 0
KHA1 240455Z 00005KT 15/13 A3003 RMK A01 T01500126  RH  089%=      5-min Rain = 0.01

Page generated in 0.0092 seconds.